(°C)
30°
32°
34°
36°
37°
37°
38°
(°C)
25°
27°
28°
30°
31°
31°
30°
ВСВ
ВСВ
ВСВ
ВСВ
В
В
В
(км/ч)
21-28
26-37
27-42
28-45
29-43
31-41
31-41
(мм)
0
0
0
0
0
0
0
(%)
0
0
0
0
0
0
0

Высота солнцестояния

/ 49.8°
sun-icon
UV 7
04:09
20:00
Полнолуние (176°)
20:01
03:23

METAR для 46.38°С 44.32°В (URWI)

Время Условия Температура/
Точка росы
Ветер Видимость Погода Облачность Давление Изменить Необработанный
VFR 29°C / 10°C 80º 12kt >10km - Clouds and Visibility OK 1014 No Significant change. Runway 09: Clear and dry, 1-10% contamination with <1mm, friction coefficient 0.65. URWI 240600Z 08006MPS CAVOK 29/10 Q1014 R09/010065 NOSIG
VFR 27°C / 11°C 80º 10kt >10km - Clouds and Visibility OK 1015 No Significant change. Runway 09: Clear and dry, 1-10% contamination with <1mm, friction coefficient 0.65. URWI 240530Z 08005MPS CAVOK 27/11 Q1015 R09/010065 NOSIG
VFR 27°C / 10°C 80º variable 050º to 110º 10kt >10km - Clear 1014 - URWI 240500Z AUTO 08005MPS 050V110 9999 // NCD 27/10 Q1014
VFR 25°C / 11°C 80º 8kt >10km - Clear 1014 - URWI 240430Z AUTO 08004MPS 9999 // NCD 25/11 Q1014
VFR 24°C / 8°C 70º 10kt >10km - Clear 1014 - URWI 240400Z AUTO 07005MPS 9999 // NCD 24/08 Q1014
VFR 24°C / 8°C 70º 6kt >10km - Clear 1014 - URWI 240330Z AUTO 07003MPS 9999 // NCD 24/08 Q1014
VFR 22°C / 9°C 70º 6kt >10km - Clear 1014 - URWI 240300Z AUTO 07003MPS 9999 // NCD 22/09 Q1014
VFR 20°C / 10°C 20º 4kt >10km - Clear 1014 - URWI 240230Z AUTO 02002MPS 9999 // NCD 20/10 Q1014
VFR 20°C / 9°C 30º 4kt >10km - Clear 1014 - URWI 240200Z AUTO 03002MPS 9999 // NCD 20/09 Q1014
VFR 18°C / 9°C variable 2kt >10km - Clear 1014 - URWI 240130Z AUTO VRB01MPS 9999 // NCD 18/09 Q1014
VFR 18°C / 9°C 350º 2kt >10km - Clear 1014 - URWI 240100Z AUTO 35001MPS 9999 // NCD 18/09 Q1014
VFR 19°C / 9°C 70º 8kt >10km - Clear 1014 - URWI 240030Z AUTO 07004MPS 9999 // NCD 19/09 Q1014
VFR 20°C / 10°C 70º 6kt >10km - Clear 1014 - URWI 240000Z AUTO 07003MPS 9999 // NCD 20/10 Q1014
VFR 19°C / 10°C 100º 8kt >10km - Clear 1014 - URWI 232330Z AUTO 10004MPS 9999 // NCD 19/10 Q1014
VFR 21°C / 10°C 110º 10kt >10km - Clear 1014 - URWI 232300Z AUTO 11005MPS 9999 // NCD 21/10 Q1014
VFR 22°C / 10°C 120º 10kt >10km - Clear 1014 - URWI 232230Z AUTO 12005MPS 9999 // NCD 22/10 Q1014
VFR 22°C / 9°C 120º 10kt >10km - Clear 1014 - URWI 232200Z AUTO 12005MPS 9999 // NCD 22/09 Q1014
VFR 23°C / 7°C 130º 8kt >10km - Clear 1014 - URWI 232130Z AUTO 13004MPS 9999 // NCD 23/07 Q1014
VFR 22°C / 8°C 110º 10kt >10km - Clear 1014 - URWI 232100Z AUTO 11005MPS 9999 // NCD 22/08 Q1014
VFR 24°C / 6°C 110º 12kt >10km - Clear 1014 - URWI 232030Z AUTO 11006MPS 9999 // NCD 24/06 Q1014
VFR 25°C / 5°C 120º 14kt >10km - Clear 1014 - URWI 232000Z AUTO 12007MPS 9999 // NCD 25/05 Q1014
VFR 26°C / 4°C 120º 14kt >10km - Clear 1014 - URWI 231930Z AUTO 12007MPS 9999 // NCD 26/04 Q1014
VFR 27°C / 3°C 120º 17kt >10km - Clear 1014 - URWI 231900Z AUTO 12009MPS 9999 // NCD 27/03 Q1014
VFR 28°C / 3°C 120º 14kt >10km - Clear 1014 - URWI 231830Z AUTO 12007MPS 9999 // NCD 28/03 Q1014

VFR

29°C / 10°C

[Больше]
Ветер 80º 12kt
Видимость >10km
Погода -
Облачность Clouds and Visibility OK
Давление 1014
Изменить No Significant change. Runway 09: Clear and dry, 1-10% contamination with <1mm, friction coefficient 0.65.
Необработанный URWI 240600Z 08006MPS CAVOK 29/10 Q1014 R09/010065 NOSIG

VFR

27°C / 11°C

[Больше]
Ветер 80º 10kt
Видимость >10km
Погода -
Облачность Clouds and Visibility OK
Давление 1015
Изменить No Significant change. Runway 09: Clear and dry, 1-10% contamination with <1mm, friction coefficient 0.65.
Необработанный URWI 240530Z 08005MPS CAVOK 27/11 Q1015 R09/010065 NOSIG

VFR

27°C / 10°C

[Больше]
Ветер 80º variable 050º to 110º 10kt
Видимость >10km
Погода -
Облачность Clear
Давление 1014
Изменить -
Необработанный URWI 240500Z AUTO 08005MPS 050V110 9999 // NCD 27/10 Q1014

VFR

25°C / 11°C

[Больше]
Ветер 80º 8kt
Видимость >10km
Погода -
Облачность Clear
Давление 1014
Изменить -
Необработанный URWI 240430Z AUTO 08004MPS 9999 // NCD 25/11 Q1014

VFR

24°C / 8°C

[Больше]
Ветер 70º 10kt
Видимость >10km
Погода -
Облачность Clear
Давление 1014
Изменить -
Необработанный URWI 240400Z AUTO 07005MPS 9999 // NCD 24/08 Q1014

VFR

24°C / 8°C

[Больше]
Ветер 70º 6kt
Видимость >10km
Погода -
Облачность Clear
Давление 1014
Изменить -
Необработанный URWI 240330Z AUTO 07003MPS 9999 // NCD 24/08 Q1014

VFR

22°C / 9°C

[Больше]
Ветер 70º 6kt
Видимость >10km
Погода -
Облачность Clear
Давление 1014
Изменить -
Необработанный URWI 240300Z AUTO 07003MPS 9999 // NCD 22/09 Q1014

VFR

20°C / 10°C

[Больше]
Ветер 20º 4kt
Видимость >10km
Погода -
Облачность Clear
Давление 1014
Изменить -
Необработанный URWI 240230Z AUTO 02002MPS 9999 // NCD 20/10 Q1014

VFR

20°C / 9°C

[Больше]
Ветер 30º 4kt
Видимость >10km
Погода -
Облачность Clear
Давление 1014
Изменить -
Необработанный URWI 240200Z AUTO 03002MPS 9999 // NCD 20/09 Q1014

VFR

18°C / 9°C

[Больше]
Ветер variable 2kt
Видимость >10km
Погода -
Облачность Clear
Давление 1014
Изменить -
Необработанный URWI 240130Z AUTO VRB01MPS 9999 // NCD 18/09 Q1014

VFR

18°C / 9°C

[Больше]
Ветер 350º 2kt
Видимость >10km
Погода -
Облачность Clear
Давление 1014
Изменить -
Необработанный URWI 240100Z AUTO 35001MPS 9999 // NCD 18/09 Q1014

VFR

19°C / 9°C

[Больше]
Ветер 70º 8kt
Видимость >10km
Погода -
Облачность Clear
Давление 1014
Изменить -
Необработанный URWI 240030Z AUTO 07004MPS 9999 // NCD 19/09 Q1014

VFR

20°C / 10°C

[Больше]
Ветер 70º 6kt
Видимость >10km
Погода -
Облачность Clear
Давление 1014
Изменить -
Необработанный URWI 240000Z AUTO 07003MPS 9999 // NCD 20/10 Q1014

VFR

19°C / 10°C

[Больше]
Ветер 100º 8kt
Видимость >10km
Погода -
Облачность Clear
Давление 1014
Изменить -
Необработанный URWI 232330Z AUTO 10004MPS 9999 // NCD 19/10 Q1014

VFR

21°C / 10°C

[Больше]
Ветер 110º 10kt
Видимость >10km
Погода -
Облачность Clear
Давление 1014
Изменить -
Необработанный URWI 232300Z AUTO 11005MPS 9999 // NCD 21/10 Q1014

VFR

22°C / 10°C

[Больше]
Ветер 120º 10kt
Видимость >10km
Погода -
Облачность Clear
Давление 1014
Изменить -
Необработанный URWI 232230Z AUTO 12005MPS 9999 // NCD 22/10 Q1014

VFR

22°C / 9°C

[Больше]
Ветер 120º 10kt
Видимость >10km
Погода -
Облачность Clear
Давление 1014
Изменить -
Необработанный URWI 232200Z AUTO 12005MPS 9999 // NCD 22/09 Q1014

VFR

23°C / 7°C

[Больше]
Ветер 130º 8kt
Видимость >10km
Погода -
Облачность Clear
Давление 1014
Изменить -
Необработанный URWI 232130Z AUTO 13004MPS 9999 // NCD 23/07 Q1014

VFR

22°C / 8°C

[Больше]
Ветер 110º 10kt
Видимость >10km
Погода -
Облачность Clear
Давление 1014
Изменить -
Необработанный URWI 232100Z AUTO 11005MPS 9999 // NCD 22/08 Q1014

VFR

24°C / 6°C

[Больше]
Ветер 110º 12kt
Видимость >10km
Погода -
Облачность Clear
Давление 1014
Изменить -
Необработанный URWI 232030Z AUTO 11006MPS 9999 // NCD 24/06 Q1014

VFR

25°C / 5°C

[Больше]
Ветер 120º 14kt
Видимость >10km
Погода -
Облачность Clear
Давление 1014
Изменить -
Необработанный URWI 232000Z AUTO 12007MPS 9999 // NCD 25/05 Q1014

VFR

26°C / 4°C

[Больше]
Ветер 120º 14kt
Видимость >10km
Погода -
Облачность Clear
Давление 1014
Изменить -
Необработанный URWI 231930Z AUTO 12007MPS 9999 // NCD 26/04 Q1014

VFR

27°C / 3°C

[Больше]
Ветер 120º 17kt
Видимость >10km
Погода -
Облачность Clear
Давление 1014
Изменить -
Необработанный URWI 231900Z AUTO 12009MPS 9999 // NCD 27/03 Q1014

VFR

28°C / 3°C

[Больше]
Ветер 120º 14kt
Видимость >10km
Погода -
Облачность Clear
Давление 1014
Изменить -
Необработанный URWI 231830Z AUTO 12007MPS 9999 // NCD 28/03 Q1014

TAF для 46.38°С 44.32°В (URWI)

From till


From till Wind 90º 14kt. Gust 23kt. Visibility 10km or more. Scattered Clouds 3000ft.
Temporarly from till Wind 120º 19kt. Gust 31kt.

Необработанный: TAF URWI 240500Z 2406/2415 09007G12MPS 9999 SCT030CB TEMPO 2406/2415 12010G16MPS

Текущие спутниковые изображения и снимки дождя для 46.38°С 44.32°В

Указатель местности находится на 46.38°С 44.32°В. [Больше]

Спутниковое изображение в реальном времени сочетает в себе видимый свет в дневное время с инфракрасным излучением в ночное время. Ночью изображение получается не темным, так как инфракрасное излучение может обнаружить разницу температур. К сожалению, низкие облака и туман трудно отличить от температуры у поверхности земли и поэтому могут быть почти незаметны ночью. Спутниковые снимки Meteosat для Европы обновляются каждые 5 минут в режиме реального времени.Снимки GOES-16/GOES-17 (Северная и Южная Америка) и Химавари (Азия) обновляются каждые 10 минут.

Копирайт 2021 EUMETSAT / meteoblue. / Копирайт 2021 meteoblue

Радарный и сверхкраткосрочный прогноз осадков для 46.38°С 44.32°В

Индикатор местности находится на 46.38°С 44.32°В. Анимация показывает радар осадков за последний час, а также прогноз погоды для1h. Умеренная морось или легкий снег могут быть незаметны для радара. Интенсивность осадковмаркированна цветной кодировкой, начиная со светло-синего и заканчивая темно-пурпурным.